createdAt,value
2023-01-17T11:33:35.645Z,942.7
2023-01-17T11:38:19.864Z,940.4
2023-01-17T11:43:03.925Z,940.5
2023-01-17T11:47:48.106Z,940.5
2023-01-17T11:52:32.547Z,940.5
2023-01-17T12:02:00.908Z,940.4
2023-01-17T12:06:45.110Z,940.2
2023-01-17T12:11:29.393Z,940
2023-01-17T12:16:13.475Z,939.9
2023-01-17T12:20:57.579Z,939.8
2023-01-17T12:25:41.805Z,939.9
2023-01-17T12:30:26.096Z,939.8
2023-01-17T12:35:10.149Z,939.7
2023-01-17T12:44:38.515Z,939.7
2023-01-17T12:49:22.614Z,939.7
2023-01-17T12:54:07.243Z,939.6
2023-01-17T12:58:51.466Z,939.5
2023-01-17T13:03:35.624Z,939.3
2023-01-17T13:08:19.968Z,939.3
2023-01-17T13:13:04.126Z,939.2
2023-01-17T13:17:48.297Z,939.2
2023-01-17T13:22:32.469Z,939.2
2023-01-17T13:27:16.589Z,939.2
2023-01-17T13:32:00.856Z,939.2
2023-01-17T13:36:44.952Z,939.1
2023-01-17T13:41:29.300Z,939.1
2023-01-17T13:46:13.313Z,939.1
2023-01-17T13:50:57.891Z,939.1
2023-01-17T13:55:42.017Z,939.1
2023-01-17T14:00:26.169Z,939.1
2023-01-17T14:05:10.863Z,939
2023-01-17T14:09:54.986Z,939
2023-01-17T14:14:39.227Z,938.9
2023-01-17T14:19:23.692Z,938.8
2023-01-17T14:24:07.650Z,938.8
2023-01-17T14:28:51.871Z,938.9
2023-01-17T14:33:36.059Z,938.8
2023-01-17T14:38:20.285Z,938.8
2023-01-17T14:43:04.365Z,938.7
2023-01-17T14:47:48.573Z,938.7
2023-01-17T14:57:16.937Z,938.5
2023-01-17T15:02:01.115Z,938.4
2023-01-17T15:06:45.240Z,938.4
2023-01-17T15:11:29.460Z,938.4
2023-01-17T15:16:13.584Z,938.4
2023-01-17T15:20:57.808Z,938.4
2023-01-17T15:25:42.124Z,938.4
2023-01-17T15:30:26.245Z,938.3
2023-01-17T15:35:10.474Z,938.4
2023-01-17T15:39:54.592Z,938.5
2023-01-17T15:44:38.816Z,938.5
2023-01-17T15:49:22.935Z,938.6
2023-01-17T15:54:07.168Z,938.6
2023-01-17T15:58:51.278Z,938.5
2023-01-17T16:08:18.222Z,938.6
2023-01-17T16:13:01.540Z,938.5
2023-01-17T16:22:28.085Z,938.5
2023-01-17T16:27:11.306Z,938.5
2023-01-17T16:36:37.851Z,938.6
2023-01-17T16:41:20.666Z,938.6
2023-01-17T16:46:04.043Z,938.6
2023-01-17T16:55:30.525Z,938.5
2023-01-17T17:00:13.743Z,938.5
2023-01-17T17:04:57.151Z,938.6
2023-01-17T17:09:40.291Z,938.4
2023-01-17T17:14:23.613Z,938.4
2023-01-17T17:19:06.534Z,938.4
2023-01-17T17:23:49.849Z,938.4
2023-01-17T17:28:33.073Z,938.4
2023-01-17T17:33:16.397Z,938.5
2023-01-17T17:37:59.623Z,938.6
2023-01-17T17:42:43.005Z,938.6
2023-01-17T17:47:26.170Z,938.6
2023-01-17T17:52:09.075Z,938.6
2023-01-17T17:56:52.296Z,938.7
2023-01-17T18:01:35.525Z,938.7
2023-01-17T18:06:18.841Z,938.7
2023-01-17T18:11:02.057Z,938.7
2023-01-17T18:15:45.183Z,938.8
2023-01-17T18:20:28.406Z,938.9
2023-01-17T18:25:11.624Z,939
2023-01-17T18:29:54.936Z,939
2023-01-17T18:34:38.167Z,939
2023-01-17T18:39:20.983Z,939
2023-01-17T18:44:04.366Z,939
2023-01-17T18:48:47.531Z,938.9
2023-01-17T18:53:30.870Z,938.9
2023-01-17T18:58:14.071Z,938.9
2023-01-17T19:02:57.449Z,938.9
2023-01-17T19:07:40.617Z,938.9
2023-01-17T19:12:23.938Z,938.9
2023-01-17T19:17:07.168Z,939
2023-01-17T19:21:50.480Z,939.1
2023-01-17T19:26:33.779Z,939.2
2023-01-17T19:31:17.029Z,939.3
2023-01-17T19:36:00.251Z,939.4
2023-01-17T19:40:43.575Z,939.4
2023-01-17T19:45:26.786Z,939.4
2023-01-17T19:50:09.615Z,939.3
2023-01-17T19:54:52.957Z,939.3
2023-01-17T19:59:36.152Z,939.3
2023-01-17T20:09:02.784Z,939.2
2023-01-17T20:13:45.118Z,939.2
2023-01-17T20:18:27.838Z,939.2
2023-01-17T20:27:53.267Z,939.3
2023-01-17T20:32:36.000Z,939.2
2023-01-17T20:37:18.045Z,939.3
2023-01-17T20:42:00.740Z,939.3
2023-01-17T20:46:43.467Z,939.2
2023-01-17T20:51:26.523Z,939.2
2023-01-17T20:56:09.112Z,939.2
2023-01-17T21:00:51.725Z,939.2
2023-01-17T21:05:34.441Z,939.2
2023-01-17T21:10:17.175Z,939.2
2023-01-17T21:14:59.908Z,939.2
2023-01-17T21:19:42.599Z,939.2
2023-01-17T21:29:08.165Z,939
2023-01-17T21:33:50.169Z,939
2023-01-17T21:38:32.889Z,939.1
2023-01-17T21:43:15.620Z,939
2023-01-17T21:52:40.368Z,939.1
2023-01-17T21:57:23.071Z,939.1
2023-01-17T22:02:05.850Z,939.1
2023-01-17T22:11:31.345Z,939.1
2023-01-17T22:16:14.054Z,939.2
2023-01-17T22:20:56.775Z,939.2
2023-01-17T22:25:39.511Z,939.2
2023-01-17T22:30:22.221Z,939.3
2023-01-17T22:35:04.933Z,939.3
2023-01-17T22:39:47.760Z,939.3
2023-01-17T22:44:29.779Z,939.4
2023-01-17T22:49:12.535Z,939.3
2023-01-17T22:53:55.227Z,939.4
2023-01-17T22:58:37.249Z,939.3
2023-01-17T23:03:19.971Z,939.4
2023-01-17T23:08:02.687Z,939.3
2023-01-17T23:12:45.406Z,939.3
2023-01-17T23:17:28.132Z,939.3
2023-01-17T23:22:10.951Z,939.4
2023-01-17T23:26:53.670Z,939.3
2023-01-17T23:31:36.434Z,939.3
2023-01-17T23:36:19.189Z,939.2
2023-01-17T23:41:01.132Z,939.3
2023-01-17T23:45:43.868Z,939.3
2023-01-17T23:50:26.675Z,939.2
2023-01-17T23:55:08.598Z,939.2
2023-01-17T23:59:51.413Z,939.2
